createdAt,value
2022-08-05T00:00:46.210Z,27.73
2022-08-05T00:06:05.728Z,27.59
2022-08-05T00:11:48.683Z,27.44
2022-08-05T00:17:05.601Z,27.28
2022-08-05T00:22:26.388Z,27.16
2022-08-05T00:27:36.275Z,27.04
2022-08-05T00:33:05.242Z,26.96
2022-08-05T00:38:28.900Z,26.82
2022-08-05T00:44:05.823Z,26.70
2022-08-05T00:49:16.807Z,26.54
2022-08-05T00:54:35.643Z,26.40
2022-08-05T00:59:45.510Z,26.29
2022-08-05T01:10:42.214Z,26.06
2022-08-05T01:16:08.058Z,25.93
2022-08-05T01:21:54.809Z,25.90
2022-08-05T01:27:19.670Z,25.74
2022-08-05T01:32:38.359Z,25.67
2022-08-05T01:38:04.534Z,25.59
2022-08-05T01:43:25.795Z,25.53
2022-08-05T01:48:50.736Z,25.39
2022-08-05T01:53:59.655Z,25.33
2022-08-05T01:59:14.532Z,25.26
2022-08-05T02:04:33.929Z,25.16
2022-08-05T02:10:07.857Z,25.10
2022-08-05T02:15:22.340Z,25.04
2022-08-05T02:21:00.037Z,24.97
2022-08-05T02:26:17.381Z,24.86
2022-08-05T02:31:26.669Z,24.78
2022-08-05T02:36:55.389Z,24.73
2022-08-05T02:42:22.502Z,24.65
2022-08-05T02:48:07.058Z,24.58
2022-08-05T02:53:19.660Z,24.51
2022-08-05T02:58:37.809Z,24.44
2022-08-05T03:04:14.339Z,24.39
2022-08-05T03:09:51.470Z,24.33
2022-08-05T03:15:02.267Z,24.27
2022-08-05T03:20:23.703Z,24.24
2022-08-05T03:26:30.355Z,24.19
2022-08-05T03:31:56.888Z,24.11
2022-08-05T03:37:13.180Z,24.01
2022-08-05T03:42:22.226Z,23.97
2022-08-05T03:47:35.462Z,23.90
2022-08-05T03:55:51.034Z,23.84
2022-08-05T03:58:35.819Z,23.81
2022-08-05T04:04:09.467Z,23.84
2022-08-05T04:09:20.291Z,23.88
2022-08-05T04:14:44.363Z,23.93
2022-08-05T04:19:54.291Z,23.93
2022-08-05T04:24:58.647Z,23.95
2022-08-05T04:30:12.444Z,23.97
2022-08-05T04:35:23.275Z,24.03
2022-08-05T04:40:32.972Z,24.17
2022-08-05T04:46:28.170Z,24.34
2022-08-05T04:51:44.179Z,24.41
2022-08-05T04:56:51.046Z,24.44
2022-08-05T05:02:36.082Z,24.53
2022-08-05T05:07:56.229Z,24.69
2022-08-05T05:13:16.945Z,24.96
2022-08-05T05:18:33.135Z,25.64
2022-08-05T05:24:02.286Z,27.75
2022-08-05T05:29:14.393Z,29.28
2022-08-05T05:34:36.233Z,30.43
2022-08-05T05:39:55.406Z,30.45
2022-08-05T05:45:03.872Z,30.92
2022-08-05T05:50:20.347Z,32.47
2022-08-05T05:55:24.254Z,33.42
2022-08-05T06:00:50.504Z,34.31
2022-08-05T06:05:55.942Z,34.77
2022-08-05T06:11:04.208Z,34.48
2022-08-05T06:16:28.839Z,34.88
2022-08-05T06:21:49.724Z,32.59
2022-08-05T06:28:08.811Z,31.75
2022-08-05T06:32:59.457Z,30.72
2022-08-05T06:38:35.839Z,29.89
2022-08-05T06:44:00.158Z,29.32
2022-08-05T06:49:08.820Z,28.75
2022-08-05T06:54:52.096Z,28.49
2022-08-05T06:59:59.490Z,28.35
2022-08-05T07:05:14.156Z,28.14
2022-08-05T07:10:32.340Z,28.04
2022-08-05T07:16:00.859Z,27.82
2022-08-05T07:21:09.534Z,27.68
2022-08-05T07:26:41.862Z,27.70
2022-08-05T07:31:55.714Z,27.57
2022-08-05T07:37:13.292Z,27.45
2022-08-05T07:42:33.979Z,27.53
2022-08-05T07:53:19.611Z,27.55
2022-08-05T07:58:57.412Z,27.50
2022-08-05T08:04:00.466Z,27.76
2022-08-05T08:09:15.273Z,27.95
2022-08-05T08:14:22.758Z,28.03
2022-08-05T08:20:22.726Z,28.06
2022-08-05T08:25:02.751Z,28.09
2022-08-05T08:30:29.580Z,28.16
2022-08-05T08:35:53.950Z,28.40
2022-08-05T08:41:08.960Z,29.43
2022-08-05T08:46:19.191Z,28.99
2022-08-05T08:52:03.821Z,28.52
2022-08-05T08:56:59.575Z,27.99
2022-08-05T09:02:08.982Z,27.99
2022-08-05T09:07:28.436Z,28.27
2022-08-05T09:13:05.004Z,28.58
2022-08-05T09:18:16.107Z,28.61
2022-08-05T09:23:37.427Z,28.63
2022-08-05T09:28:55.978Z,28.62
2022-08-05T09:34:17.622Z,28.60
2022-08-05T09:39:43.164Z,28.72
2022-08-05T09:45:17.870Z,28.87
2022-08-05T09:50:44.752Z,28.83
2022-08-05T09:56:03.721Z,28.81
2022-08-05T10:01:22.576Z,29.18
2022-08-05T10:06:55.129Z,29.25
2022-08-05T10:12:31.020Z,29.46
2022-08-05T10:17:40.715Z,29.71
2022-08-05T10:22:56.025Z,29.80
2022-08-05T10:33:28.856Z,29.71
2022-08-05T10:38:37.763Z,29.60
2022-08-05T10:44:09.369Z,29.77
2022-08-05T10:49:27.553Z,30.04
2022-08-05T10:55:04.661Z,30.01
2022-08-05T11:00:24.907Z,30.03
2022-08-05T11:05:42.980Z,29.99
2022-08-05T11:11:00.882Z,30.26
2022-08-05T11:16:47.511Z,30.37
2022-08-05T11:22:01.779Z,30.30
2022-08-05T11:27:51.795Z,30.30
2022-08-05T11:33:46.389Z,30.40
2022-08-05T11:39:19.171Z,30.51
2022-08-05T11:44:53.891Z,30.46
2022-08-05T11:50:08.256Z,30.60
2022-08-05T11:55:36.519Z,30.82
2022-08-05T12:00:55.360Z,30.59
2022-08-05T12:06:11.369Z,30.67
2022-08-05T12:11:40.104Z,30.61
2022-08-05T12:18:02.693Z,30.88
2022-08-05T12:22:47.642Z,31.05
2022-08-05T12:28:02.463Z,31.12
2022-08-05T12:33:27.098Z,31.03
2022-08-05T12:38:41.207Z,30.99
2022-08-05T12:44:02.180Z,30.99
2022-08-05T12:49:13.580Z,31.14
2022-08-05T12:54:26.490Z,31.27
2022-08-05T12:59:46.835Z,31.45
2022-08-05T13:05:20.611Z,31.63
2022-08-05T13:10:28.918Z,31.64
2022-08-05T13:15:50.881Z,31.75
2022-08-05T13:21:01.442Z,31.85
2022-08-05T13:26:14.737Z,31.85
2022-08-05T13:32:03.320Z,31.76
2022-08-05T13:36:52.740Z,31.70
2022-08-05T13:41:59.095Z,31.63
2022-08-05T13:47:08.756Z,31.77
2022-08-05T13:52:29.467Z,31.96
2022-08-05T13:57:51.235Z,32.04
2022-08-05T14:03:10.381Z,31.98
2022-08-05T14:08:35.528Z,31.87
2022-08-05T14:13:48.538Z,31.80
2022-08-05T14:19:05.025Z,31.73
2022-08-05T14:24:33.585Z,31.69
2022-08-05T14:29:55.634Z,31.67
2022-08-05T14:35:01.644Z,31.64
2022-08-05T14:40:14.012Z,31.67
2022-08-05T14:45:34.950Z,31.58
2022-08-05T14:50:46.557Z,31.47
2022-08-05T14:55:58.738Z,31.42
2022-08-05T15:01:17.465Z,31.51
2022-08-05T15:06:31.211Z,31.52
2022-08-05T15:12:04.112Z,31.41
2022-08-05T15:17:46.814Z,31.28
2022-08-05T15:23:11.583Z,31.11
2022-08-05T15:28:22.249Z,30.72
2022-08-05T15:34:18.397Z,30.12
2022-08-05T15:41:00.213Z,29.54
2022-08-05T15:45:38.197Z,28.92
2022-08-05T15:51:09.316Z,28.36
2022-08-05T15:56:22.361Z,27.97
2022-08-05T16:01:39.759Z,27.68
2022-08-05T16:07:13.410Z,27.52
2022-08-05T16:12:24.119Z,27.12
2022-08-05T16:17:40.205Z,26.82
2022-08-05T16:22:53.247Z,26.57
2022-08-05T16:28:05.903Z,26.23
2022-08-05T16:33:16.567Z,25.85
2022-08-05T16:38:44.025Z,25.62
2022-08-05T16:44:04.709Z,25.17
2022-08-05T16:49:13.806Z,24.86
2022-08-05T16:54:27.534Z,24.62
2022-08-05T17:00:00.355Z,24.42
2022-08-05T17:05:38.474Z,24.17
2022-08-05T17:10:43.676Z,24.07
2022-08-05T17:15:55.622Z,24.03
2022-08-05T17:21:20.045Z,23.81
2022-08-05T17:26:31.681Z,23.63
2022-08-05T17:32:05.718Z,23.48
2022-08-05T17:37:41.910Z,23.44
2022-08-05T17:42:56.938Z,23.46
2022-08-05T17:48:10.134Z,23.34
2022-08-05T17:53:30.167Z,23.25
2022-08-05T17:58:51.218Z,23.17
2022-08-05T18:04:04.737Z,23.02
2022-08-05T18:09:18.705Z,22.93
2022-08-05T18:14:23.931Z,22.83
2022-08-05T18:19:40.735Z,22.70
2022-08-05T18:25:02.394Z,22.69
2022-08-05T18:30:21.487Z,22.63
2022-08-05T18:35:59.640Z,22.56
2022-08-05T18:41:56.163Z,22.50
2022-08-05T18:46:52.816Z,22.45
2022-08-05T18:52:38.067Z,22.35
2022-08-05T18:58:06.928Z,22.22
2022-08-05T19:03:52.743Z,22.17
2022-08-05T19:09:00.357Z,22.11
2022-08-05T19:19:33.256Z,22.00
2022-08-05T19:24:56.136Z,22.03
2022-08-05T19:30:09.195Z,22.05
2022-08-05T19:35:25.956Z,22.06
2022-08-05T19:40:52.177Z,22.00
2022-08-05T19:46:16.653Z,21.96
2022-08-05T19:52:08.324Z,21.89
2022-08-05T19:57:15.741Z,21.77
2022-08-05T20:02:44.457Z,21.67
2022-08-05T20:08:00.847Z,21.61
2022-08-05T20:13:10.261Z,21.55
2022-08-05T20:18:33.681Z,21.49
2022-08-05T20:23:55.432Z,21.49
2022-08-05T20:29:27.341Z,21.41
2022-08-05T20:34:46.578Z,21.44
2022-08-05T20:40:24.090Z,21.45
2022-08-05T20:45:56.271Z,21.44
2022-08-05T20:51:32.036Z,21.41
2022-08-05T20:56:58.037Z,21.34
2022-08-05T21:02:04.678Z,21.33
2022-08-05T21:07:50.834Z,21.34
2022-08-05T21:13:08.822Z,21.32
2022-08-05T21:18:23.280Z,21.26
2022-08-05T21:23:39.022Z,21.18
2022-08-05T21:28:50.841Z,21.11
2022-08-05T21:33:57.485Z,21.05
2022-08-05T21:39:14.287Z,21.02
2022-08-05T21:44:26.773Z,21.02
2022-08-05T21:49:48.620Z,20.99
2022-08-05T21:55:06.249Z,20.99
2022-08-05T22:00:15.842Z,20.91
2022-08-05T22:05:27.699Z,20.84
2022-08-05T22:10:40.103Z,20.86
2022-08-05T22:16:02.729Z,20.78
2022-08-05T22:21:22.594Z,20.79
2022-08-05T22:26:49.902Z,20.76
2022-08-05T22:32:02.585Z,20.72
2022-08-05T22:37:20.901Z,20.72
2022-08-05T22:42:31.444Z,20.71
2022-08-05T22:47:56.894Z,20.72
2022-08-05T22:53:09.882Z,20.70
2022-08-05T22:58:28.639Z,20.74
2022-08-05T23:03:59.134Z,20.75
2022-08-05T23:09:27.587Z,20.73
2022-08-05T23:14:48.563Z,20.71
2022-08-05T23:19:57.133Z,20.68
2022-08-05T23:25:04.169Z,20.65
2022-08-05T23:30:16.877Z,20.61
2022-08-05T23:35:22.727Z,20.54
2022-08-05T23:40:27.900Z,20.50
2022-08-05T23:45:42.886Z,20.41
2022-08-05T23:50:48.660Z,20.26
2022-08-05T23:55:53.502Z,20.07
